createdAt,value
2019-02-05T00:00:45.340Z,44.47
2019-02-05T00:03:15.619Z,46.93
2019-02-05T00:05:44.251Z,50.83
2019-02-05T00:08:12.942Z,49.13
2019-02-05T00:10:41.582Z,51.97
2019-02-05T00:13:10.270Z,47.80
2019-02-05T00:15:38.980Z,50.27
2019-02-05T00:18:07.586Z,53.43
2019-02-05T00:20:36.271Z,48.50
2019-02-05T00:23:04.918Z,47.40
2019-02-05T00:25:33.570Z,50.10
2019-02-05T00:28:02.209Z,53.63
2019-02-05T00:30:30.890Z,48.10
2019-02-05T00:32:59.524Z,49.93
2019-02-05T00:35:28.208Z,50.43
2019-02-05T00:37:56.861Z,52.87
2019-02-05T00:40:25.540Z,52.67
2019-02-05T00:42:54.119Z,56.97
2019-02-05T00:45:23.129Z,74.03
2019-02-05T00:47:51.732Z,57.97
2019-02-05T00:50:20.476Z,64.40
2019-02-05T00:52:49.171Z,53.10
2019-02-05T00:55:19.982Z,53.23
2019-02-05T00:57:48.603Z,62.77
2019-02-05T01:00:32.391Z,63.97
2019-02-05T01:03:01.036Z,68.73
2019-02-05T01:05:29.717Z,61.17
2019-02-05T01:07:58.375Z,57.90
2019-02-05T01:10:27.357Z,60.30
2019-02-05T01:12:56.506Z,59.30
2019-02-05T01:15:26.088Z,59.37
2019-02-05T01:17:54.715Z,62.30
2019-02-05T01:20:23.797Z,58.90
2019-02-05T01:22:52.719Z,56.17
2019-02-05T01:25:22.165Z,58.03
2019-02-05T01:27:51.274Z,58.50
2019-02-05T01:30:25.406Z,60.10
2019-02-05T01:32:56.956Z,59.80
2019-02-05T01:35:25.635Z,61.47
2019-02-05T01:37:55.260Z,62.27
2019-02-05T01:40:26.340Z,63.97
2019-02-05T01:42:55.699Z,66.03
2019-02-05T01:45:24.934Z,65.90
2019-02-05T01:47:53.673Z,69.90
2019-02-05T01:50:26.956Z,69.00
2019-02-05T01:52:55.868Z,64.37
2019-02-05T01:55:24.763Z,67.27
2019-02-05T01:57:53.552Z,66.33
2019-02-05T02:00:30.875Z,65.60
2019-02-05T02:02:59.859Z,66.43
2019-02-05T02:05:28.534Z,67.33
2019-02-05T02:07:57.639Z,70.00
2019-02-05T02:10:28.441Z,69.20
2019-02-05T02:12:57.223Z,66.43
2019-02-05T02:15:29.143Z,70.00
2019-02-05T02:17:57.784Z,64.73
2019-02-05T02:20:26.628Z,65.07
2019-02-05T02:22:55.629Z,64.03
2019-02-05T02:25:24.432Z,66.73
2019-02-05T02:27:53.136Z,67.63
2019-02-05T02:30:36.199Z,67.70
2019-02-05T02:33:05.240Z,72.50
2019-02-05T02:35:34.300Z,87.40
2019-02-05T02:38:02.936Z,89.37
2019-02-05T02:40:31.584Z,96.93
2019-02-05T02:43:00.183Z,93.07
2019-02-05T02:45:28.754Z,95.43
2019-02-05T02:47:57.444Z,94.50
2019-02-05T02:50:26.073Z,89.37
2019-02-05T02:52:54.713Z,97.50
2019-02-05T02:55:23.390Z,106.63
2019-02-05T02:57:52.003Z,112.10
2019-02-05T03:00:22.191Z,113.10
2019-02-05T03:02:51.902Z,109.10
2019-02-05T03:05:24.687Z,104.53
2019-02-05T03:07:53.352Z,104.00
2019-02-05T03:10:26.803Z,103.63
2019-02-05T03:12:55.441Z,101.50
2019-02-05T03:15:24.076Z,94.20
2019-02-05T03:17:52.704Z,99.57
2019-02-05T03:20:21.393Z,101.53
2019-02-05T03:22:50.326Z,95.00
2019-02-05T03:25:24.835Z,90.10
2019-02-05T03:27:54.400Z,88.00
2019-02-05T03:30:24.844Z,86.53
2019-02-05T03:32:55.205Z,85.30
2019-02-05T03:35:24.638Z,78.67
2019-02-05T03:37:53.273Z,78.93
2019-02-05T03:40:31.155Z,78.80
2019-02-05T03:43:00.098Z,84.20
2019-02-05T03:45:31.899Z,89.30
2019-02-05T03:48:02.829Z,95.17
2019-02-05T03:50:33.715Z,98.03
2019-02-05T03:53:15.590Z,106.77
2019-02-05T03:56:08.555Z,94.83
2019-02-05T03:58:49.927Z,96.87
2019-02-05T04:01:27.314Z,96.57
2019-02-05T04:04:15.638Z,87.97
2019-02-05T04:06:50.252Z,83.27
2019-02-05T04:09:38.461Z,81.87
2019-02-05T04:12:13.459Z,78.47
2019-02-05T04:14:47.899Z,80.97
2019-02-05T04:17:28.496Z,79.90
2019-02-05T04:20:24.283Z,84.33
2019-02-05T04:23:18.316Z,75.90
2019-02-05T04:26:06.684Z,75.90
2019-02-05T04:28:50.205Z,81.83
2019-02-05T04:31:36.804Z,78.77
2019-02-05T04:34:17.225Z,80.33
2019-02-05T04:37:17.761Z,93.53
2019-02-05T04:40:13.367Z,89.60
2019-02-05T04:42:53.290Z,85.40
2019-02-05T04:45:33.852Z,101.40
2019-02-05T04:48:06.930Z,144.03
2019-02-05T04:50:58.270Z,122.03
2019-02-05T04:54:03.402Z,125.07
2019-02-05T04:57:08.083Z,109.27
2019-02-05T05:00:12.784Z,100.80
2019-02-05T05:03:17.651Z,117.30
2019-02-05T05:06:22.485Z,108.03
2019-02-05T05:09:27.691Z,104.60
2019-02-05T05:12:15.400Z,111.83
2019-02-05T05:15:20.200Z,108.20
2019-02-05T05:18:08.326Z,122.13
2019-02-05T05:21:12.992Z,126.53
2019-02-05T05:24:01.159Z,110.43
2019-02-05T05:27:05.723Z,106.70
2019-02-05T05:29:53.759Z,123.20
2019-02-05T05:32:58.381Z,130.27
2019-02-05T05:35:46.485Z,135.60
2019-02-05T05:38:50.976Z,127.20
2019-02-05T05:41:39.255Z,134.60
2019-02-05T05:44:43.857Z,127.37
2019-02-05T05:50:33.784Z,130.80
2019-02-05T05:53:38.390Z,122.53
2019-02-05T05:56:26.264Z,200.10
2019-02-05T05:59:30.867Z,191.70
2019-02-05T06:02:20.724Z,141.17
2019-02-05T06:05:25.483Z,146.97
2019-02-05T06:08:14.039Z,123.60
2019-02-05T06:11:18.950Z,174.33
2019-02-05T06:14:07.318Z,164.70
2019-02-05T06:17:12.218Z,169.50
2019-02-05T06:20:00.342Z,168.97
2019-02-05T06:23:05.368Z,158.50
2019-02-05T06:25:52.992Z,158.83
2019-02-05T06:28:57.776Z,147.10
2019-02-05T06:31:49.178Z,153.93
2019-02-05T06:34:54.028Z,136.83
2019-02-05T06:37:44.116Z,148.67
2019-02-05T06:40:49.219Z,152.40
2019-02-05T06:43:37.710Z,164.00
2019-02-05T06:46:42.902Z,164.77
2019-02-05T06:49:31.416Z,165.73
2019-02-05T06:52:36.757Z,168.17
2019-02-05T06:55:25.462Z,155.37
2019-02-05T06:58:31.324Z,232.87
2019-02-05T07:01:19.989Z,557.47
2019-02-05T07:04:27.485Z,622.70
2019-02-05T07:07:20.213Z,297.70
2019-02-05T07:10:26.468Z,163.10
2019-02-05T07:12:57.888Z,82.57
2019-02-05T07:15:33.332Z,223.17
2019-02-05T07:18:07.521Z,263.50
2019-02-05T07:20:41.088Z,99.80
2019-02-05T07:23:16.258Z,85.40
2019-02-05T07:25:46.740Z,55.77
2019-02-05T07:28:15.631Z,46.23
2019-02-05T07:30:44.581Z,44.27
2019-02-05T07:33:16.898Z,37.43
2019-02-05T07:35:47.749Z,38.77
2019-02-05T07:38:24.386Z,38.30
2019-02-05T07:40:53.525Z,36.70
2019-02-05T07:43:31.086Z,34.20
2019-02-05T07:46:00.294Z,35.43
2019-02-05T07:48:30.779Z,34.77
2019-02-05T07:51:09.513Z,28.13
2019-02-05T07:53:41.951Z,24.37
2019-02-05T07:56:12.976Z,23.77
2019-02-05T07:58:44.195Z,23.20
2019-02-05T08:01:17.732Z,24.10
2019-02-05T08:03:46.492Z,25.80
2019-02-05T08:06:15.169Z,27.73
2019-02-05T08:08:43.806Z,27.27
2019-02-05T08:11:14.994Z,24.93
2019-02-05T08:13:43.836Z,25.50
2019-02-05T08:16:12.855Z,25.93
2019-02-05T08:18:45.187Z,33.47
2019-02-05T08:21:14.677Z,27.80
2019-02-05T08:23:47.723Z,39.30
2019-02-05T08:26:18.931Z,33.63
2019-02-05T08:28:51.043Z,34.07
2019-02-05T08:31:20.499Z,36.57
2019-02-05T08:33:52.019Z,33.10
2019-02-05T08:36:21.548Z,34.03
2019-02-05T08:38:51.826Z,32.13
2019-02-05T08:41:23.936Z,39.97
2019-02-05T08:43:53.409Z,37.57
2019-02-05T08:46:22.587Z,35.10
2019-02-05T08:48:52.597Z,31.63
2019-02-05T08:51:22.001Z,31.60
2019-02-05T08:53:54.710Z,31.97
2019-02-05T08:56:25.592Z,32.03
2019-02-05T08:58:54.774Z,32.43
2019-02-05T09:01:24.182Z,33.70
2019-02-05T09:03:57.188Z,34.37
2019-02-05T09:06:26.491Z,35.93
2019-02-05T09:08:55.382Z,33.50
2019-02-05T09:11:24.622Z,34.70
2019-02-05T09:14:10.583Z,32.30
2019-02-05T09:16:28.391Z,32.23
2019-02-05T09:18:57.332Z,29.83
2019-02-05T09:21:26.421Z,29.27
2019-02-05T09:23:55.679Z,30.93
2019-02-05T09:26:25.186Z,26.30
2019-02-05T09:28:53.866Z,24.93
2019-02-05T09:31:23.930Z,20.67
2019-02-05T09:33:52.644Z,23.10
2019-02-05T09:36:21.731Z,22.17
2019-02-05T09:38:50.476Z,18.77
2019-02-05T09:41:19.266Z,16.07
2019-02-05T09:43:48.678Z,16.90
2019-02-05T09:46:20.373Z,16.50
2019-02-05T09:48:50.904Z,18.40
2019-02-05T09:51:19.878Z,17.80
2019-02-05T09:53:48.538Z,19.17
2019-02-05T09:56:18.947Z,18.30
2019-02-05T09:58:47.621Z,17.43
2019-02-05T10:01:16.258Z,19.63
2019-02-05T10:03:44.937Z,19.03
2019-02-05T10:06:13.633Z,17.93
2019-02-05T10:08:43.215Z,17.60
2019-02-05T10:11:12.146Z,16.53
2019-02-05T10:13:40.854Z,17.60
2019-02-05T10:16:09.489Z,19.30
2019-02-05T10:18:38.135Z,17.87
2019-02-05T10:21:09.696Z,18.13
2019-02-05T10:23:38.329Z,16.67
2019-02-05T10:26:07.713Z,16.50
2019-02-05T10:28:36.336Z,16.33
2019-02-05T10:31:05.101Z,16.30
2019-02-05T10:33:35.456Z,16.20
2019-02-05T10:36:04.224Z,15.50
2019-02-05T10:38:33.850Z,16.97
2019-02-05T10:41:02.606Z,18.93
2019-02-05T10:43:32.772Z,16.50
2019-02-05T10:46:01.492Z,16.60
2019-02-05T10:48:30.336Z,16.93
2019-02-05T10:50:59.231Z,16.97
2019-02-05T10:53:28.070Z,16.80
2019-02-05T10:55:56.972Z,18.37
2019-02-05T10:58:28.289Z,16.63
2019-02-05T11:01:00.582Z,17.07
2019-02-05T11:03:29.973Z,17.37
2019-02-05T11:06:00.346Z,17.67
2019-02-05T11:08:30.665Z,14.70
2019-02-05T11:11:02.358Z,15.07
2019-02-05T11:13:36.189Z,14.30
2019-02-05T11:16:08.669Z,13.07
2019-02-05T11:18:37.018Z,14.87
2019-02-05T11:21:06.888Z,15.60
2019-02-05T11:23:35.828Z,15.43
2019-02-05T11:26:04.773Z,11.38
2019-02-05T11:28:33.999Z,15.20
2019-02-05T11:31:03.002Z,11.75
2019-02-05T11:33:32.346Z,15.10
2019-02-05T11:36:01.855Z,13.55
2019-02-05T11:38:30.855Z,12.93
2019-02-05T11:40:59.860Z,13.15
2019-02-05T11:43:34.322Z,10.77
2019-02-05T11:46:03.437Z,9.58
2019-02-05T11:48:34.548Z,11.30
2019-02-05T11:51:08.410Z,10.57
2019-02-05T11:53:37.683Z,10.18
2019-02-05T11:56:06.751Z,10.55
2019-02-05T11:58:38.421Z,9.08
2019-02-05T12:01:10.746Z,9.03
2019-02-05T12:03:43.337Z,8.90
2019-02-05T12:06:18.370Z,11.30
2019-02-05T12:08:50.544Z,11.30
2019-02-05T12:11:24.255Z,11.87
2019-02-05T12:13:56.759Z,11.23
2019-02-05T12:16:36.039Z,12.23
2019-02-05T12:19:07.082Z,11.35
2019-02-05T12:21:46.080Z,12.23
2019-02-05T12:24:21.727Z,10.08
2019-02-05T12:26:54.529Z,10.70
2019-02-05T12:29:30.304Z,9.50
2019-02-05T12:32:05.289Z,8.80
2019-02-05T12:34:47.714Z,8.78
2019-02-05T12:37:12.236Z,11.53
2019-02-05T12:39:44.355Z,12.10
2019-02-05T12:42:15.727Z,13.10
2019-02-05T12:44:47.150Z,11.50
2019-02-05T12:47:18.472Z,13.27
2019-02-05T12:49:53.914Z,11.20
2019-02-05T12:52:24.149Z,12.80
2019-02-05T12:54:52.940Z,12.53
2019-02-05T12:57:21.555Z,12.20
2019-02-05T12:59:50.226Z,11.07
2019-02-05T13:02:22.856Z,10.53
2019-02-05T13:04:51.543Z,12.03
2019-02-05T13:07:20.150Z,13.33
2019-02-05T13:09:48.716Z,9.30
2019-02-05T13:12:17.385Z,8.50
2019-02-05T13:14:49.307Z,9.07
2019-02-05T13:17:20.780Z,8.00
2019-02-05T13:19:49.434Z,9.07
2019-02-05T13:22:18.107Z,8.57
2019-02-05T13:24:46.923Z,9.83
2019-02-05T13:27:18.470Z,8.93
2019-02-05T13:29:49.465Z,9.60
2019-02-05T13:32:20.898Z,9.37
2019-02-05T13:34:49.724Z,9.20
2019-02-05T13:37:21.115Z,10.17
2019-02-05T13:39:49.980Z,8.63
2019-02-05T13:42:18.701Z,8.40
2019-02-05T13:44:47.777Z,9.13
2019-02-05T13:47:16.570Z,8.30
2019-02-05T13:49:45.417Z,8.03
2019-02-05T13:52:14.131Z,10.40
2019-02-05T13:54:42.847Z,9.70
2019-02-05T13:57:12.505Z,11.00
2019-02-05T13:59:43.386Z,9.37
2019-02-05T14:02:12.271Z,9.80
2019-02-05T14:04:41.072Z,13.50
2019-02-05T14:07:09.789Z,13.53
2019-02-05T14:09:41.340Z,11.63
2019-02-05T14:12:10.030Z,10.93
2019-02-05T14:14:38.941Z,12.40
2019-02-05T14:17:07.662Z,13.00
2019-02-05T14:19:36.264Z,13.20
2019-02-05T14:22:04.939Z,13.67
2019-02-05T14:24:33.681Z,13.23
2019-02-05T14:27:02.373Z,13.30
2019-02-05T14:29:31.008Z,14.07
2019-02-05T14:31:59.650Z,12.63
2019-02-05T14:34:31.001Z,11.20
2019-02-05T14:37:02.382Z,13.33
2019-02-05T14:39:31.051Z,12.23
2019-02-05T14:42:02.115Z,13.00
2019-02-05T14:44:30.939Z,14.70
2019-02-05T14:46:59.612Z,13.13
2019-02-05T14:49:28.215Z,13.67
2019-02-05T14:51:57.915Z,15.00
2019-02-05T14:54:29.592Z,15.63
2019-02-05T14:56:58.226Z,15.57
2019-02-05T14:59:27.181Z,16.70
2019-02-05T15:01:55.810Z,16.87
2019-02-05T15:04:25.054Z,16.80
2019-02-05T15:06:53.684Z,17.37
2019-02-05T15:09:22.324Z,18.37
2019-02-05T15:11:51.004Z,18.10
2019-02-05T15:14:19.638Z,19.73
2019-02-05T15:16:48.269Z,20.33
2019-02-05T15:19:16.970Z,18.73
2019-02-05T15:21:45.664Z,17.83
2019-02-05T15:24:14.450Z,23.83
2019-02-05T15:26:43.089Z,28.70
2019-02-05T15:29:11.830Z,25.03
2019-02-05T15:31:40.454Z,22.30
2019-02-05T15:34:10.745Z,22.67
2019-02-05T15:36:39.513Z,26.07
2019-02-05T15:39:11.042Z,27.53
2019-02-05T15:41:39.679Z,30.13
2019-02-05T15:44:08.350Z,28.40
2019-02-05T15:46:37.043Z,30.60
2019-02-05T15:49:05.729Z,31.00
2019-02-05T15:51:34.370Z,35.07
2019-02-05T15:54:02.929Z,48.73
2019-02-05T15:56:31.682Z,37.03
2019-02-05T15:59:00.324Z,43.97
2019-02-05T16:01:29.191Z,37.20
2019-02-05T16:03:57.806Z,35.80
2019-02-05T16:06:26.554Z,35.60
2019-02-05T16:08:55.190Z,36.50
2019-02-05T16:11:23.971Z,40.40
2019-02-05T16:13:52.704Z,35.93
2019-02-05T16:16:21.333Z,34.80
2019-02-05T16:18:53.205Z,39.83
2019-02-05T16:21:20.422Z,39.47
2019-02-05T16:23:49.830Z,39.37
2019-02-05T16:26:18.640Z,36.80
2019-02-05T16:28:47.992Z,35.20
2019-02-05T16:31:19.640Z,36.07
2019-02-05T16:33:48.270Z,34.83
2019-02-05T16:36:17.512Z,37.17
2019-02-05T16:38:46.224Z,34.80
2019-02-05T16:41:14.900Z,32.47
2019-02-05T16:43:44.158Z,31.20
2019-02-05T16:46:12.792Z,30.17
2019-02-05T16:48:41.482Z,34.87
2019-02-05T16:51:19.236Z,33.20
2019-02-05T16:53:47.911Z,31.97
2019-02-05T16:56:17.915Z,30.53
2019-02-05T16:58:49.958Z,27.13
2019-02-05T17:01:21.503Z,28.53
2019-02-05T17:03:50.281Z,30.60
2019-02-05T17:06:18.902Z,27.00
2019-02-05T17:08:47.622Z,25.23
2019-02-05T17:11:16.304Z,28.97
2019-02-05T17:13:44.940Z,30.00
2019-02-05T17:16:13.913Z,30.70
2019-02-05T17:18:42.547Z,30.80
2019-02-05T17:21:11.330Z,30.67
2019-02-05T17:23:39.886Z,30.50
2019-02-05T17:26:08.526Z,30.97
2019-02-05T17:28:37.702Z,27.87
2019-02-05T17:31:06.520Z,25.60
2019-02-05T17:33:38.134Z,22.53
2019-02-05T17:36:07.590Z,22.47
2019-02-05T17:38:37.878Z,19.17
2019-02-05T17:41:06.505Z,19.63
2019-02-05T17:43:35.210Z,20.73
2019-02-05T17:46:05.935Z,22.60
2019-02-05T17:48:34.767Z,25.00
2019-02-05T17:51:03.465Z,22.53
2019-02-05T17:53:32.162Z,24.30
2019-02-05T17:56:00.715Z,22.73
2019-02-05T17:58:32.752Z,21.57
2019-02-05T18:01:03.879Z,21.50
2019-02-05T18:03:32.581Z,23.43
2019-02-05T18:06:04.286Z,25.07
2019-02-05T18:08:35.826Z,23.27
2019-02-05T18:11:05.075Z,21.93
2019-02-05T18:13:33.805Z,24.30
2019-02-05T18:16:02.918Z,24.63
2019-02-05T18:18:31.592Z,25.00
2019-02-05T18:21:03.619Z,24.43
2019-02-05T18:23:32.371Z,25.07
2019-02-05T18:26:01.000Z,25.30
2019-02-05T18:28:31.041Z,26.40
2019-02-05T18:31:02.877Z,25.80
2019-02-05T18:33:31.673Z,27.13
2019-02-05T18:36:00.482Z,27.73
2019-02-05T18:38:29.135Z,27.10
2019-02-05T18:40:57.796Z,26.23
2019-02-05T18:43:26.501Z,24.33
2019-02-05T18:45:55.164Z,26.20
2019-02-05T18:48:26.833Z,28.70
2019-02-05T18:50:55.809Z,27.33
2019-02-05T18:53:24.427Z,28.17
2019-02-05T18:55:55.809Z,28.17
2019-02-05T18:58:26.694Z,25.93
2019-02-05T19:00:54.842Z,25.00
2019-02-05T19:03:23.517Z,20.87
2019-02-05T19:05:52.168Z,20.13
2019-02-05T19:08:20.945Z,20.87
2019-02-05T19:10:52.530Z,23.37
2019-02-05T19:13:21.341Z,20.37
2019-02-05T19:15:50.067Z,20.33
2019-02-05T19:18:18.949Z,22.40
2019-02-05T19:20:47.599Z,21.47
2019-02-05T19:23:16.225Z,24.00
2019-02-05T19:25:52.336Z,25.23
2019-02-05T19:28:31.363Z,23.73
2019-02-05T19:31:01.633Z,22.07
2019-02-05T19:33:30.262Z,23.13
2019-02-05T19:35:58.863Z,25.50
2019-02-05T19:38:27.569Z,27.37
2019-02-05T19:40:57.814Z,27.70
2019-02-05T19:43:29.576Z,29.77
2019-02-05T19:46:05.361Z,27.57
2019-02-05T19:48:38.750Z,25.00
2019-02-05T19:51:10.325Z,23.90
2019-02-05T19:53:39.017Z,25.10
2019-02-05T19:56:08.021Z,23.80
2019-02-05T19:58:37.129Z,25.40
2019-02-05T20:01:08.714Z,25.53
2019-02-05T20:03:39.022Z,28.27
2019-02-05T20:06:07.953Z,25.47
2019-02-05T20:08:38.027Z,25.90
2019-02-05T20:11:09.640Z,26.67
2019-02-05T20:13:40.762Z,24.93
2019-02-05T20:16:09.490Z,25.97
2019-02-05T20:18:40.864Z,25.33
2019-02-05T20:21:09.737Z,26.60
2019-02-05T20:23:38.377Z,28.23
2019-02-05T20:26:07.333Z,28.47
2019-02-05T20:28:36.353Z,28.80
2019-02-05T20:31:07.708Z,28.13
2019-02-05T20:33:36.351Z,29.50
2019-02-05T20:36:05.149Z,32.30
2019-02-05T20:38:33.896Z,29.97
2019-02-05T20:41:03.267Z,28.73
2019-02-05T20:43:32.030Z,25.80
2019-02-05T20:46:03.656Z,27.57
2019-02-05T20:48:35.432Z,26.80
2019-02-05T20:51:06.969Z,26.60
2019-02-05T20:53:35.599Z,24.60
2019-02-05T20:56:04.530Z,23.17
2019-02-05T20:58:33.318Z,22.80
2019-02-05T21:01:02.916Z,21.80
2019-02-05T21:03:31.592Z,22.87
2019-02-05T21:06:00.226Z,21.10
2019-02-05T21:08:32.013Z,21.60
2019-02-05T21:11:00.742Z,21.17
2019-02-05T21:13:29.292Z,21.67
2019-02-05T21:16:03.555Z,23.73
2019-02-05T21:18:35.266Z,22.07
2019-02-05T21:21:04.371Z,19.60
2019-02-05T21:23:33.046Z,19.03
2019-02-05T21:26:01.656Z,19.10
2019-02-05T21:28:30.342Z,33.17
2019-02-05T21:30:59.053Z,38.60
2019-02-05T21:33:27.731Z,33.17
2019-02-05T21:35:59.313Z,25.97
2019-02-05T21:38:27.966Z,26.17
2019-02-05T21:40:58.215Z,26.47
2019-02-05T21:43:26.772Z,24.60
2019-02-05T21:45:55.343Z,23.63
2019-02-05T21:48:24.292Z,24.30
2019-02-05T21:50:56.560Z,25.70
2019-02-05T21:53:25.200Z,25.63
2019-02-05T21:55:53.755Z,27.47
2019-02-05T21:58:25.549Z,26.57
2019-02-05T22:00:54.271Z,27.90
2019-02-05T22:03:23.998Z,28.17
2019-02-05T22:05:52.595Z,27.73
2019-02-05T22:08:21.271Z,24.90
2019-02-05T22:10:49.930Z,27.90
2019-02-05T22:13:18.518Z,26.00
2019-02-05T22:15:47.142Z,27.50
2019-02-05T22:18:15.681Z,26.10
2019-02-05T22:20:44.365Z,26.47
2019-02-05T22:23:13.644Z,25.60
2019-02-05T22:25:42.375Z,24.67
2019-02-05T22:28:14.038Z,23.37
2019-02-05T22:30:42.710Z,22.27
2019-02-05T22:33:11.376Z,21.53
2019-02-05T22:35:40.031Z,21.53
2019-02-05T22:38:08.712Z,22.27
2019-02-05T22:40:40.190Z,22.23
2019-02-05T22:43:09.208Z,23.07
2019-02-05T22:45:40.909Z,23.60
2019-02-05T22:48:08.243Z,22.83
2019-02-05T22:50:38.017Z,24.03
2019-02-05T22:53:09.298Z,25.80
2019-02-05T22:55:37.924Z,26.57
2019-02-05T22:58:07.060Z,26.73
2019-02-05T23:00:56.554Z,26.10
2019-02-05T23:03:30.666Z,25.63
2019-02-05T23:06:23.517Z,24.77
2019-02-05T23:08:53.271Z,25.83
2019-02-05T23:11:43.810Z,26.03
2019-02-05T23:14:12.441Z,25.37
2019-02-05T23:16:41.106Z,26.23
2019-02-05T23:19:09.736Z,23.20
2019-02-05T23:21:38.843Z,22.70
2019-02-05T23:24:07.485Z,23.67
2019-02-05T23:26:36.126Z,24.60
2019-02-05T23:29:04.812Z,27.37
2019-02-05T23:31:33.578Z,24.53
2019-02-05T23:34:06.114Z,24.00
2019-02-05T23:36:35.168Z,25.67
2019-02-05T23:39:04.844Z,26.33
2019-02-05T23:41:33.444Z,26.83
2019-02-05T23:44:02.091Z,28.70
2019-02-05T23:46:30.722Z,28.30
2019-02-05T23:48:59.320Z,25.50
2019-02-05T23:51:28.019Z,27.10
2019-02-05T23:53:56.688Z,27.93
2019-02-05T23:56:25.864Z,27.13
2019-02-05T23:58:54.979Z,25.90
